createdAt,value
2018-12-21T00:00:09.798Z,1004.65
2018-12-21T00:00:35.910Z,1004.71
2018-12-21T00:01:02.016Z,1004.66
2018-12-21T00:01:28.126Z,1004.67
2018-12-21T00:01:54.238Z,1004.64
2018-12-21T00:02:20.365Z,1004.64
2018-12-21T00:02:46.477Z,1004.63
2018-12-21T00:03:12.584Z,1004.57
2018-12-21T00:03:38.749Z,1004.46
2018-12-21T00:04:04.851Z,1004.58
2018-12-21T00:04:30.961Z,1004.51
2018-12-21T00:04:57.076Z,1004.54
2018-12-21T00:05:23.166Z,1004.54
2018-12-21T00:05:49.302Z,1004.49
2018-12-21T00:06:15.436Z,1004.48
2018-12-21T00:06:41.544Z,1004.4
2018-12-21T00:07:07.697Z,1004.49
2018-12-21T00:07:34.021Z,1004.52
2018-12-21T00:08:00.087Z,1004.46
2018-12-21T00:08:26.241Z,1004.46
2018-12-21T00:08:52.362Z,1004.44
2018-12-21T00:09:18.472Z,1004.5
2018-12-21T00:09:44.603Z,1004.55
2018-12-21T00:10:10.735Z,1004.49
2018-12-21T00:10:36.953Z,1004.5
2018-12-21T00:11:03.167Z,1004.45
2018-12-21T00:11:29.293Z,1004.47
2018-12-21T00:11:55.438Z,1004.53
2018-12-21T00:12:21.577Z,1004.56
2018-12-21T00:12:47.690Z,1004.58
2018-12-21T00:13:13.823Z,1004.57
2018-12-21T00:13:39.918Z,1004.49
2018-12-21T00:14:06.023Z,1004.41
2018-12-21T00:14:32.133Z,1004.41
2018-12-21T00:14:58.329Z,1004.47
2018-12-21T00:15:24.464Z,1004.47
2018-12-21T00:15:50.542Z,1004.45
2018-12-21T00:16:16.644Z,1004.46
2018-12-21T00:16:42.777Z,1004.48
2018-12-21T00:17:08.929Z,1004.47
2018-12-21T00:17:36.053Z,1004.5
2018-12-21T00:18:02.155Z,1004.44
2018-12-21T00:18:28.344Z,1004.43
2018-12-21T00:18:54.484Z,1004.48
2018-12-21T00:19:20.594Z,1004.31
2018-12-21T00:19:46.697Z,1004.38
2018-12-21T00:20:12.857Z,1004.37
2018-12-21T00:20:39.006Z,1004.38
2018-12-21T00:21:05.114Z,1004.34
2018-12-21T00:21:32.625Z,1004.35
2018-12-21T00:21:58.766Z,1004.28
2018-12-21T00:22:24.922Z,1004.28
2018-12-21T00:22:51.029Z,1004.28
2018-12-21T00:23:17.197Z,1004.27
2018-12-21T00:23:43.395Z,1004.21
2018-12-21T00:24:09.506Z,1004.24
2018-12-21T00:24:35.609Z,1004.27
2018-12-21T00:25:01.713Z,1004.22
2018-12-21T00:25:27.835Z,1004.22
2018-12-21T00:25:54.078Z,1004.2
2018-12-21T00:26:20.192Z,1004.2
2018-12-21T00:26:46.295Z,1004.22
2018-12-21T00:27:12.431Z,1004.22
2018-12-21T00:27:38.763Z,1004.23
2018-12-21T00:28:05.035Z,1004.18
2018-12-21T00:28:31.203Z,1004.18
2018-12-21T00:28:57.298Z,1004.15
2018-12-21T00:29:23.809Z,1004.19
2018-12-21T00:29:49.952Z,1004.26
2018-12-21T00:30:16.055Z,1004.2
2018-12-21T00:30:42.298Z,1004.15
2018-12-21T00:31:08.452Z,1004.17
2018-12-21T00:31:34.589Z,1004.2
2018-12-21T00:32:00.692Z,1004.22
2018-12-21T00:32:26.835Z,1004.21
2018-12-21T00:32:52.960Z,1004.19
2018-12-21T00:33:19.112Z,1004.19
2018-12-21T00:33:45.222Z,1004.18
2018-12-21T00:34:11.360Z,1004.15
2018-12-21T00:34:37.461Z,1004.11
2018-12-21T00:35:03.616Z,1004.17
2018-12-21T00:35:29.729Z,1004.18
2018-12-21T00:35:55.867Z,1004.18
2018-12-21T00:36:21.965Z,1004.1
2018-12-21T00:36:48.092Z,1004.18
2018-12-21T00:37:14.218Z,1004.12
2018-12-21T00:37:40.329Z,1004.19
2018-12-21T00:38:06.433Z,1004.21
2018-12-21T00:38:32.560Z,1004.13
2018-12-21T00:38:58.675Z,1004.19
2018-12-21T00:39:24.810Z,1004.19
2018-12-21T00:39:50.919Z,1004.21
2018-12-21T00:40:17.022Z,1004.19
2018-12-21T00:40:43.178Z,1004.17
2018-12-21T00:41:09.279Z,1004.18
2018-12-21T00:41:35.385Z,1004.16
2018-12-21T00:42:01.495Z,1004.18
2018-12-21T00:42:27.609Z,1004.2
2018-12-21T00:42:53.757Z,1004.18
2018-12-21T00:43:19.883Z,1004.2
2018-12-21T00:43:45.989Z,1004.22
2018-12-21T00:44:12.094Z,1004.18
2018-12-21T00:44:38.213Z,1004.2
2018-12-21T00:45:04.359Z,1004.21
2018-12-21T00:45:30.484Z,1004.19
2018-12-21T00:45:56.612Z,1004.17
2018-12-21T00:46:22.746Z,1004.19
2018-12-21T00:46:48.879Z,1004.16
2018-12-21T00:47:15.041Z,1004.2
2018-12-21T00:47:41.146Z,1004.19
2018-12-21T00:48:07.249Z,1004.22
2018-12-21T00:48:33.389Z,1004.26
2018-12-21T00:48:59.511Z,1004.27
2018-12-21T00:49:25.616Z,1004.22
2018-12-21T00:49:51.762Z,1004.22
2018-12-21T00:50:17.942Z,1004.18
2018-12-21T00:50:44.112Z,1004.17
2018-12-21T00:51:10.214Z,1004.19
2018-12-21T00:51:37.304Z,1004.16
2018-12-21T00:52:03.439Z,1004.11
2018-12-21T00:52:29.543Z,1004.14
2018-12-21T00:52:55.647Z,1004.1
2018-12-21T00:53:21.758Z,1004.16
2018-12-21T00:53:47.895Z,1004.1
2018-12-21T00:54:14.032Z,1004.08
2018-12-21T00:54:40.163Z,1004.07
2018-12-21T00:55:06.270Z,1004.11
2018-12-21T00:55:32.456Z,1004
2018-12-21T00:55:58.617Z,1004.03
2018-12-21T00:56:24.732Z,1004.03
2018-12-21T00:56:50.838Z,1004.01
2018-12-21T00:57:16.945Z,1004
2018-12-21T00:57:43.056Z,1004
2018-12-21T00:58:09.188Z,1003.89
2018-12-21T00:58:35.291Z,1003.93
2018-12-21T00:59:01.400Z,1003.95
2018-12-21T00:59:27.559Z,1003.98
2018-12-21T00:59:53.695Z,1003.93
2018-12-21T01:00:19.865Z,1003.95
2018-12-21T01:00:46.042Z,1003.92
2018-12-21T01:01:12.168Z,1003.94
2018-12-21T01:01:38.272Z,1003.94
2018-12-21T01:02:04.405Z,1003.86
2018-12-21T01:02:30.512Z,1003.91
2018-12-21T01:02:56.615Z,1003.88
2018-12-21T01:03:22.724Z,1003.88
2018-12-21T01:03:48.832Z,1003.85
2018-12-21T01:04:14.934Z,1003.86
2018-12-21T01:04:41.043Z,1003.87
2018-12-21T01:05:07.172Z,1003.88
2018-12-21T01:05:33.271Z,1003.85
2018-12-21T01:05:59.407Z,1003.81
2018-12-21T01:06:25.511Z,1003.79
2018-12-21T01:06:51.609Z,1003.82
2018-12-21T01:07:17.714Z,1003.83
2018-12-21T01:07:43.825Z,1003.83
2018-12-21T01:08:09.924Z,1003.79
2018-12-21T01:08:36.033Z,1003.81
2018-12-21T01:09:02.140Z,1003.83
2018-12-21T01:09:28.246Z,1003.78
2018-12-21T01:09:54.348Z,1003.81
2018-12-21T01:10:20.490Z,1003.8
2018-12-21T01:10:46.590Z,1003.83
2018-12-21T01:11:12.701Z,1003.75
2018-12-21T01:11:38.800Z,1003.78
2018-12-21T01:12:04.908Z,1003.74
2018-12-21T01:12:31.014Z,1003.8
2018-12-21T01:12:57.124Z,1003.85
2018-12-21T01:13:23.228Z,1003.82
2018-12-21T01:13:49.361Z,1003.8
2018-12-21T01:14:15.464Z,1003.87
2018-12-21T01:14:41.566Z,1003.77
2018-12-21T01:15:07.676Z,1003.81
2018-12-21T01:15:33.784Z,1003.78
2018-12-21T01:15:59.918Z,1003.8
2018-12-21T01:16:26.025Z,1003.82
2018-12-21T01:16:52.129Z,1003.77
2018-12-21T01:17:18.240Z,1003.82
2018-12-21T01:17:44.349Z,1003.79
2018-12-21T01:18:10.455Z,1003.8
2018-12-21T01:18:36.567Z,1003.81
2018-12-21T01:19:02.696Z,1003.84
2018-12-21T01:19:28.827Z,1003.85
2018-12-21T01:19:54.931Z,1003.78
2018-12-21T01:20:21.043Z,1003.84
2018-12-21T01:20:47.139Z,1003.85
2018-12-21T01:21:13.250Z,1003.82
2018-12-21T01:21:40.365Z,1003.8
2018-12-21T01:22:06.476Z,1003.87
2018-12-21T01:22:32.585Z,1003.88
2018-12-21T01:22:58.686Z,1003.91
2018-12-21T01:23:24.824Z,1003.76
2018-12-21T01:23:50.936Z,1003.76
2018-12-21T01:24:17.041Z,1003.8
2018-12-21T01:24:43.138Z,1003.86
2018-12-21T01:25:09.247Z,1003.81
2018-12-21T01:25:35.353Z,1003.84
2018-12-21T01:26:01.459Z,1003.84
2018-12-21T01:26:27.562Z,1003.8
2018-12-21T01:26:53.668Z,1003.8
2018-12-21T01:27:19.777Z,1003.93
2018-12-21T01:27:45.886Z,1003.85
2018-12-21T01:28:12.033Z,1003.83
2018-12-21T01:28:38.360Z,1003.85
2018-12-21T01:29:04.486Z,1003.82
2018-12-21T01:29:30.594Z,1003.82
2018-12-21T01:29:56.734Z,1003.8
2018-12-21T01:30:22.839Z,1003.75
2018-12-21T01:30:48.976Z,1003.72
2018-12-21T01:31:15.110Z,1003.77
2018-12-21T01:31:41.240Z,1003.76
2018-12-21T01:32:07.355Z,1003.78
2018-12-21T01:32:33.462Z,1003.73
2018-12-21T01:32:59.567Z,1003.83
2018-12-21T01:33:25.672Z,1003.78
2018-12-21T01:33:51.779Z,1003.75
2018-12-21T01:34:17.884Z,1003.69
2018-12-21T01:34:43.992Z,1003.74
2018-12-21T01:35:10.102Z,1003.73
2018-12-21T01:35:36.207Z,1003.73
2018-12-21T01:36:02.316Z,1003.73
2018-12-21T01:36:28.427Z,1003.79
2018-12-21T01:36:54.539Z,1003.73
2018-12-21T01:37:20.640Z,1003.69
2018-12-21T01:37:46.746Z,1003.72
2018-12-21T01:38:12.847Z,1003.74
2018-12-21T01:38:38.991Z,1003.71
2018-12-21T01:39:05.093Z,1003.73
2018-12-21T01:39:31.199Z,1003.73
2018-12-21T01:39:57.327Z,1003.73
2018-12-21T01:40:23.438Z,1003.71
2018-12-21T01:40:49.546Z,1003.73
2018-12-21T01:41:15.688Z,1003.7
2018-12-21T01:41:41.802Z,1003.69
2018-12-21T01:42:07.937Z,1003.69
2018-12-21T01:42:34.069Z,1003.74
2018-12-21T01:43:00.175Z,1003.76
2018-12-21T01:43:26.282Z,1003.74
2018-12-21T01:43:52.391Z,1003.75
2018-12-21T01:44:18.489Z,1003.75
2018-12-21T01:44:44.595Z,1003.71
2018-12-21T01:45:10.700Z,1003.71
2018-12-21T01:45:36.802Z,1003.67
2018-12-21T01:46:02.914Z,1003.68
2018-12-21T01:46:29.028Z,1003.64
2018-12-21T01:46:55.129Z,1003.63
2018-12-21T01:47:21.236Z,1003.63
2018-12-21T01:47:47.341Z,1003.67
2018-12-21T01:48:13.473Z,1003.61
2018-12-21T01:48:39.569Z,1003.59
2018-12-21T01:49:05.673Z,1003.6
2018-12-21T01:49:31.779Z,1003.64
2018-12-21T01:49:57.889Z,1003.62
2018-12-21T01:50:23.997Z,1003.6
2018-12-21T01:50:50.099Z,1003.6
2018-12-21T01:51:16.207Z,1003.59
2018-12-21T01:51:46.998Z,1003.54
2018-12-21T01:52:09.412Z,1003.57
2018-12-21T01:52:35.514Z,1003.57
2018-12-21T01:53:01.618Z,1003.56
2018-12-21T01:53:27.726Z,1003.58
2018-12-21T01:53:53.831Z,1003.55
2018-12-21T01:54:19.930Z,1003.61
2018-12-21T01:54:46.042Z,1003.54
2018-12-21T01:55:12.143Z,1003.56
2018-12-21T01:55:38.249Z,1003.56
2018-12-21T01:56:04.410Z,1003.49
2018-12-21T01:56:30.455Z,1003.51
2018-12-21T01:56:56.564Z,1003.54
2018-12-21T01:57:22.697Z,1003.55
2018-12-21T01:57:48.800Z,1003.54
2018-12-21T01:58:14.907Z,1003.53
2018-12-21T01:58:41.016Z,1003.56
2018-12-21T01:59:07.149Z,1003.59
2018-12-21T01:59:33.279Z,1003.58
2018-12-21T01:59:59.382Z,1003.54
2018-12-21T02:00:25.498Z,1003.54
2018-12-21T02:00:51.625Z,1003.48
2018-12-21T02:01:17.732Z,1003.52
2018-12-21T02:01:43.839Z,1003.62
2018-12-21T02:02:09.945Z,1003.56
2018-12-21T02:02:36.049Z,1003.47
2018-12-21T02:03:02.154Z,1003.42
2018-12-21T02:03:28.262Z,1003.46
2018-12-21T02:03:54.377Z,1003.4
2018-12-21T02:04:20.511Z,1003.38
2018-12-21T02:04:46.616Z,1003.43
2018-12-21T02:05:12.720Z,1003.4
2018-12-21T02:05:38.832Z,1003.4
2018-12-21T02:06:04.938Z,1003.52
2018-12-21T02:06:31.051Z,1003.41
2018-12-21T02:06:57.148Z,1003.43
2018-12-21T02:07:23.250Z,1003.4
2018-12-21T02:07:49.355Z,1003.35
2018-12-21T02:08:15.457Z,1003.33
2018-12-21T02:08:41.597Z,1003.34
2018-12-21T02:09:07.759Z,1003.32
2018-12-21T02:09:33.865Z,1003.4
2018-12-21T02:09:59.968Z,1003.33
2018-12-21T02:10:26.073Z,1003.37
2018-12-21T02:10:52.186Z,1003.32
2018-12-21T02:11:18.300Z,1003.3
2018-12-21T02:11:44.403Z,1003.33
2018-12-21T02:12:10.535Z,1003.25
2018-12-21T02:12:36.634Z,1003.28
2018-12-21T02:13:02.768Z,1003.28
2018-12-21T02:13:28.878Z,1003.28
2018-12-21T02:13:54.975Z,1003.27
2018-12-21T02:14:21.087Z,1003.35
2018-12-21T02:14:47.198Z,1003.26
2018-12-21T02:15:13.300Z,1003.23
2018-12-21T02:15:39.408Z,1003.22
2018-12-21T02:16:05.512Z,1003.2
2018-12-21T02:16:31.651Z,1003.15
2018-12-21T02:16:57.761Z,1003.16
2018-12-21T02:17:23.895Z,1003.15
2018-12-21T02:17:49.994Z,1003.16
2018-12-21T02:18:16.099Z,1003.1
2018-12-21T02:18:42.215Z,1003.11
2018-12-21T02:19:08.352Z,1003.08
2018-12-21T02:19:34.448Z,1003.05
2018-12-21T02:20:00.581Z,1003.07
2018-12-21T02:20:26.723Z,1003.04
2018-12-21T02:20:52.818Z,1003.05
2018-12-21T02:21:18.922Z,1003.06
2018-12-21T02:21:45.030Z,1003.02
2018-12-21T02:22:12.151Z,1003.14
2018-12-21T02:22:38.256Z,1003.09
2018-12-21T02:23:04.393Z,1003.08
2018-12-21T02:23:30.496Z,1003.15
2018-12-21T02:23:56.628Z,1003.1
2018-12-21T02:24:22.761Z,1003.06
2018-12-21T02:24:48.868Z,1003.08
2018-12-21T02:25:15.014Z,1003.09
2018-12-21T02:25:41.114Z,1003.08
2018-12-21T02:26:07.214Z,1003.1
2018-12-21T02:26:33.316Z,1003.08
2018-12-21T02:26:59.426Z,1003.05
2018-12-21T02:27:25.537Z,1003.09
2018-12-21T02:27:51.637Z,1003.12
2018-12-21T02:28:17.750Z,1003.07
2018-12-21T02:28:43.854Z,1003.03
2018-12-21T02:29:09.997Z,1003.05
2018-12-21T02:29:36.126Z,1003.02
2018-12-21T02:30:02.230Z,1003.01
2018-12-21T02:30:28.363Z,1003.01
2018-12-21T02:30:54.475Z,1003.1
2018-12-21T02:31:20.602Z,1003.06
2018-12-21T02:31:46.737Z,1003.01
2018-12-21T02:32:12.872Z,1003.01
2018-12-21T02:32:38.979Z,1003.04
2018-12-21T02:33:05.093Z,1003.01
2018-12-21T02:33:31.257Z,1003.02
2018-12-21T02:33:57.390Z,1002.86
2018-12-21T02:34:23.491Z,1002.91
2018-12-21T02:34:49.603Z,1002.94
2018-12-21T02:35:15.732Z,1002.87
2018-12-21T02:35:41.874Z,1002.86
2018-12-21T02:36:08.019Z,1002.87
2018-12-21T02:36:34.191Z,1002.86
2018-12-21T02:37:00.316Z,1002.91
2018-12-21T02:37:26.457Z,1002.91
2018-12-21T02:37:52.564Z,1002.93
2018-12-21T02:38:18.666Z,1002.86
2018-12-21T02:38:44.774Z,1002.81
2018-12-21T02:39:10.881Z,1002.89
2018-12-21T02:39:37.015Z,1002.9
2018-12-21T02:40:03.221Z,1002.97
2018-12-21T02:40:29.359Z,1002.93
2018-12-21T02:40:55.497Z,1002.87
2018-12-21T02:41:21.598Z,1002.91
2018-12-21T02:41:47.735Z,1002.97
2018-12-21T02:42:13.845Z,1002.93
2018-12-21T02:42:39.949Z,1002.9
2018-12-21T02:43:06.055Z,1002.91
2018-12-21T02:43:32.156Z,1002.91
2018-12-21T02:43:58.285Z,1002.85
2018-12-21T02:44:24.387Z,1002.86
2018-12-21T02:44:50.490Z,1002.86
2018-12-21T02:45:16.595Z,1002.91
2018-12-21T02:45:42.728Z,1002.97
2018-12-21T02:46:08.837Z,1002.87
2018-12-21T02:46:34.973Z,1002.95
2018-12-21T02:47:01.076Z,1002.87
2018-12-21T02:47:27.204Z,1002.89
2018-12-21T02:47:53.312Z,1002.87
2018-12-21T02:48:19.453Z,1002.91
2018-12-21T02:48:45.558Z,1002.9
2018-12-21T02:49:11.667Z,1002.96
2018-12-21T02:49:37.773Z,1002.92
2018-12-21T02:50:03.952Z,1002.89
2018-12-21T02:50:30.062Z,1002.92
2018-12-21T02:50:56.233Z,1002.92
2018-12-21T02:51:22.339Z,1002.84
2018-12-21T02:51:48.460Z,1002.9
2018-12-21T02:52:16.268Z,1002.9
2018-12-21T02:52:42.371Z,1002.89
2018-12-21T02:53:08.561Z,1002.87
2018-12-21T02:53:34.689Z,1002.86
2018-12-21T02:54:00.836Z,1002.95
2018-12-21T02:54:26.940Z,1002.92
2018-12-21T02:54:53.052Z,1002.92
2018-12-21T02:55:19.152Z,1002.92
2018-12-21T02:55:45.255Z,1002.81
2018-12-21T02:56:11.364Z,1002.87
2018-12-21T02:56:37.504Z,1002.87
2018-12-21T02:57:03.607Z,1002.88
2018-12-21T02:57:29.733Z,1002.91
2018-12-21T02:57:55.861Z,1002.84
2018-12-21T02:58:22.007Z,1002.92
2018-12-21T02:58:48.107Z,1002.83
2018-12-21T02:59:14.220Z,1002.89
2018-12-21T02:59:40.324Z,1002.84
2018-12-21T03:00:06.452Z,1002.87
2018-12-21T03:00:32.577Z,1002.79
2018-12-21T03:00:58.733Z,1002.82
2018-12-21T03:01:24.835Z,1002.83
2018-12-21T03:01:50.974Z,1002.72
2018-12-21T03:02:17.223Z,1002.73
2018-12-21T03:02:43.357Z,1002.79
2018-12-21T03:03:09.493Z,1002.7
2018-12-21T03:03:35.597Z,1002.77
2018-12-21T03:04:01.736Z,1002.75
2018-12-21T03:04:27.843Z,1002.73
2018-12-21T03:04:53.951Z,1002.7
2018-12-21T03:05:20.058Z,1002.73
2018-12-21T03:05:46.158Z,1002.76
2018-12-21T03:06:12.263Z,1002.75
2018-12-21T03:06:38.366Z,1002.7
2018-12-21T03:07:04.474Z,1002.66
2018-12-21T03:07:30.623Z,1002.69
2018-12-21T03:07:56.741Z,1002.75
2018-12-21T03:08:23.012Z,1002.72
2018-12-21T03:08:49.097Z,1002.7
2018-12-21T03:09:15.298Z,1002.75
2018-12-21T03:09:41.416Z,1002.75
2018-12-21T03:10:07.521Z,1002.72
2018-12-21T03:10:33.627Z,1002.68
2018-12-21T03:10:59.755Z,1002.67
2018-12-21T03:11:25.896Z,1002.71
2018-12-21T03:11:52.003Z,1002.69
2018-12-21T03:12:18.170Z,1002.66
2018-12-21T03:12:44.301Z,1002.65
2018-12-21T03:13:10.443Z,1002.63
2018-12-21T03:13:36.609Z,1002.64
2018-12-21T03:14:02.717Z,1002.65
2018-12-21T03:14:28.823Z,1002.68
2018-12-21T03:14:54.931Z,1002.7
2018-12-21T03:15:21.053Z,1002.67
2018-12-21T03:15:47.165Z,1002.66
2018-12-21T03:16:13.349Z,1002.65
2018-12-21T03:16:39.478Z,1002.62
2018-12-21T03:17:05.585Z,1002.67
2018-12-21T03:17:31.719Z,1002.64
2018-12-21T03:17:57.825Z,1002.6
2018-12-21T03:18:23.928Z,1002.62
2018-12-21T03:18:50.093Z,1002.58
2018-12-21T03:19:16.175Z,1002.55
2018-12-21T03:19:42.276Z,1002.53
2018-12-21T03:20:08.442Z,1002.5
2018-12-21T03:20:34.556Z,1002.47
2018-12-21T03:21:00.689Z,1002.49
2018-12-21T03:21:26.792Z,1002.49
2018-12-21T03:21:52.955Z,1002.4
2018-12-21T03:22:20.077Z,1002.46
2018-12-21T03:22:46.210Z,1002.44
2018-12-21T03:23:12.317Z,1002.37
2018-12-21T03:23:38.460Z,1002.4
2018-12-21T03:24:04.560Z,1002.39
2018-12-21T03:24:30.662Z,1002.37
2018-12-21T03:24:56.773Z,1002.38
2018-12-21T03:25:22.905Z,1002.32
2018-12-21T03:25:49.008Z,1002.29
2018-12-21T03:26:15.121Z,1002.27
2018-12-21T03:26:41.213Z,1002.31
2018-12-21T03:27:07.381Z,1002.27
2018-12-21T03:27:33.482Z,1002.24
2018-12-21T03:27:59.590Z,1002.18
2018-12-21T03:28:25.725Z,1002.24
2018-12-21T03:28:51.828Z,1002.19
2018-12-21T03:29:17.937Z,1002.21
2018-12-21T03:29:44.070Z,1002.2
2018-12-21T03:30:10.181Z,1002.16
2018-12-21T03:30:36.311Z,1002.15
2018-12-21T03:31:02.429Z,1002.12
2018-12-21T03:31:28.733Z,1002.15
2018-12-21T03:31:54.897Z,1002.15
2018-12-21T03:32:21.162Z,1002.19
2018-12-21T03:32:47.310Z,1002.09
2018-12-21T03:33:13.509Z,1002.09
2018-12-21T03:33:39.609Z,1002.1
2018-12-21T03:34:05.869Z,1002.06
2018-12-21T03:34:32.037Z,1002.06
2018-12-21T03:34:58.204Z,1002.03
2018-12-21T03:35:24.338Z,1002.03
2018-12-21T03:35:50.504Z,1002.02
2018-12-21T03:36:16.641Z,1002.05
2018-12-21T03:36:42.775Z,1002.07
2018-12-21T03:37:08.944Z,1001.97
2018-12-21T03:37:35.052Z,1002.06
2018-12-21T03:38:01.161Z,1002.01
2018-12-21T03:38:27.290Z,1001.98
2018-12-21T03:38:53.391Z,1001.94
2018-12-21T03:39:19.495Z,1001.92
2018-12-21T03:39:45.605Z,1001.95
2018-12-21T03:40:11.812Z,1001.94
2018-12-21T03:40:37.926Z,1001.89
2018-12-21T03:41:04.057Z,1001.94
2018-12-21T03:41:30.201Z,1001.9
2018-12-21T03:41:56.305Z,1001.87
2018-12-21T03:42:22.414Z,1001.85
2018-12-21T03:42:48.550Z,1001.81
2018-12-21T03:43:14.655Z,1001.87
2018-12-21T03:43:40.761Z,1001.89
2018-12-21T03:44:06.868Z,1001.76
2018-12-21T03:44:32.974Z,1001.75
2018-12-21T03:44:59.122Z,1001.77
2018-12-21T03:45:25.218Z,1001.7
2018-12-21T03:45:51.322Z,1001.65
2018-12-21T03:46:17.425Z,1001.73
2018-12-21T03:46:43.557Z,1001.61
2018-12-21T03:47:09.658Z,1001.65
2018-12-21T03:47:35.762Z,1001.59
2018-12-21T03:48:01.869Z,1001.58
2018-12-21T03:48:28.005Z,1001.56
2018-12-21T03:48:54.149Z,1001.52
2018-12-21T03:49:20.286Z,1001.57
2018-12-21T03:49:46.390Z,1001.45
2018-12-21T03:50:12.567Z,1001.42
2018-12-21T03:50:38.664Z,1001.44
2018-12-21T03:51:04.796Z,1001.45
2018-12-21T03:51:30.901Z,1001.42
2018-12-21T03:51:57.034Z,1001.38
2018-12-21T03:52:24.765Z,1001.44
2018-12-21T03:52:50.858Z,1001.34
2018-12-21T03:53:17.012Z,1001.39
2018-12-21T03:53:43.170Z,1001.39
2018-12-21T03:54:09.328Z,1001.33
2018-12-21T03:54:35.454Z,1001.43
2018-12-21T03:55:01.596Z,1001.37
2018-12-21T03:55:27.697Z,1001.41
2018-12-21T03:55:53.806Z,1001.41
2018-12-21T03:56:19.913Z,1001.39
2018-12-21T03:56:46.019Z,1001.37
2018-12-21T03:57:12.152Z,1001.38
2018-12-21T03:57:38.264Z,1001.35
2018-12-21T03:58:04.364Z,1001.38
2018-12-21T03:58:30.469Z,1001.34
2018-12-21T03:58:56.603Z,1001.4
2018-12-21T03:59:22.708Z,1001.33
2018-12-21T03:59:48.884Z,1001.37
2018-12-21T04:00:15.029Z,1001.28
2018-12-21T04:00:41.134Z,1001.26
2018-12-21T04:01:07.299Z,1001.31
2018-12-21T04:01:33.413Z,1001.24
2018-12-21T04:01:59.550Z,1001.22
2018-12-21T04:02:26.218Z,1001.22
2018-12-21T04:02:52.321Z,1001.31
2018-12-21T04:03:18.433Z,1001.23
2018-12-21T04:03:44.534Z,1001.29
2018-12-21T04:04:10.643Z,1001.29
2018-12-21T04:04:36.746Z,1001.23
2018-12-21T04:05:02.852Z,1001.29
2018-12-21T04:05:28.992Z,1001.24
2018-12-21T04:05:55.132Z,1001.2
2018-12-21T04:06:21.242Z,1001.24
2018-12-21T04:06:47.345Z,1001.21
2018-12-21T04:07:13.452Z,1001.24
2018-12-21T04:07:39.566Z,1001.17
2018-12-21T04:08:05.671Z,1001.16
2018-12-21T04:08:31.795Z,1001.18
2018-12-21T04:08:57.930Z,1001.2
2018-12-21T04:09:24.062Z,1001.17
2018-12-21T04:09:50.171Z,1001.22
2018-12-21T04:10:16.365Z,1001.16
2018-12-21T04:10:42.468Z,1001.19
2018-12-21T04:11:08.634Z,1001.17
2018-12-21T04:11:34.741Z,1001.15
2018-12-21T04:12:00.907Z,1001.19
2018-12-21T04:12:27.018Z,1001.17
2018-12-21T04:12:53.176Z,1001.19
2018-12-21T04:13:19.307Z,1001.14
2018-12-21T04:13:45.437Z,1001.14
2018-12-21T04:14:11.569Z,1001.1
2018-12-21T04:14:37.706Z,1001.11
2018-12-21T04:15:03.870Z,1001.09
2018-12-21T04:15:30.000Z,1001.06
2018-12-21T04:15:56.131Z,1000.98
2018-12-21T04:16:22.229Z,1001.05
2018-12-21T04:16:48.342Z,1001.03
2018-12-21T04:17:14.484Z,1001.03
2018-12-21T04:17:40.609Z,1001.09
2018-12-21T04:18:06.709Z,1001.08
2018-12-21T04:18:32.816Z,1001.12
2018-12-21T04:18:58.952Z,1001.03
2018-12-21T04:19:25.084Z,1001.05
2018-12-21T04:19:51.193Z,1001
2018-12-21T04:20:17.298Z,1001
2018-12-21T04:20:43.401Z,1001.02
2018-12-21T04:21:09.529Z,1000.95
2018-12-21T04:21:35.635Z,1000.94
2018-12-21T04:22:01.742Z,1000.92
2018-12-21T04:22:33.871Z,1000.94
2018-12-21T04:22:54.062Z,1000.94
2018-12-21T04:23:20.157Z,1000.91
2018-12-21T04:23:46.265Z,1000.88
2018-12-21T04:24:12.365Z,1000.93
2018-12-21T04:24:38.484Z,1000.89
2018-12-21T04:25:04.584Z,1000.88
2018-12-21T04:25:30.719Z,1000.83
2018-12-21T04:25:56.878Z,1000.87
2018-12-21T04:26:22.981Z,1000.86
2018-12-21T04:26:49.089Z,1000.87
2018-12-21T04:27:15.222Z,1000.78
2018-12-21T04:27:41.376Z,1000.82
2018-12-21T04:28:07.486Z,1000.8
2018-12-21T04:28:33.595Z,1000.81
2018-12-21T04:28:59.789Z,1000.8
2018-12-21T04:29:25.911Z,1000.79
2018-12-21T04:29:51.999Z,1000.77
2018-12-21T04:30:18.155Z,1000.8
2018-12-21T04:30:44.266Z,1000.81
2018-12-21T04:31:10.368Z,1000.8
2018-12-21T04:31:36.473Z,1000.85
2018-12-21T04:32:02.600Z,1000.78
2018-12-21T04:32:28.738Z,1000.82
2018-12-21T04:32:54.878Z,1000.79
2018-12-21T04:33:21.012Z,1000.79
2018-12-21T04:33:47.147Z,1000.77
2018-12-21T04:34:13.253Z,1000.79
2018-12-21T04:34:39.341Z,1000.77
2018-12-21T04:35:05.456Z,1000.82
2018-12-21T04:35:31.628Z,1000.87
2018-12-21T04:35:57.720Z,1000.75
2018-12-21T04:36:23.839Z,1000.72
2018-12-21T04:36:49.930Z,1000.76
2018-12-21T04:37:16.051Z,1000.73
2018-12-21T04:37:42.169Z,1000.69
2018-12-21T04:38:08.311Z,1000.7
2018-12-21T04:38:34.447Z,1000.72
2018-12-21T04:39:00.576Z,1000.69
2018-12-21T04:39:26.680Z,1000.67
2018-12-21T04:39:52.817Z,1000.67
2018-12-21T04:40:18.915Z,1000.65
2018-12-21T04:40:45.052Z,1000.67
2018-12-21T04:41:11.212Z,1000.58
2018-12-21T04:41:37.322Z,1000.61
2018-12-21T04:42:03.450Z,1000.6
2018-12-21T04:42:29.560Z,1000.67
2018-12-21T04:42:55.719Z,1000.58
2018-12-21T04:43:21.827Z,1000.65
2018-12-21T04:43:47.934Z,1000.55
2018-12-21T04:44:14.036Z,1000.57
2018-12-21T04:44:40.144Z,1000.56
2018-12-21T04:45:06.252Z,1000.56
2018-12-21T04:45:32.381Z,1000.48
2018-12-21T04:45:58.544Z,1000.47
2018-12-21T04:46:24.649Z,1000.48
2018-12-21T04:46:50.774Z,1000.45
2018-12-21T04:47:16.886Z,1000.44
2018-12-21T04:47:43.015Z,1000.44
2018-12-21T04:48:09.117Z,1000.42
2018-12-21T04:48:35.221Z,1000.37
2018-12-21T04:49:01.366Z,1000.37
2018-12-21T04:49:27.546Z,1000.39
2018-12-21T04:49:53.681Z,1000.39
2018-12-21T04:50:19.785Z,1000.41
2018-12-21T04:50:45.897Z,1000.43
2018-12-21T04:51:12.029Z,1000.38
2018-12-21T04:51:38.141Z,1000.39
2018-12-21T04:52:04.283Z,1000.41
2018-12-21T04:52:30.381Z,1000.4
2018-12-21T04:52:57.503Z,1000.37
2018-12-21T04:53:23.607Z,1000.34
2018-12-21T04:53:49.713Z,1000.32
2018-12-21T04:54:15.895Z,1000.31
2018-12-21T04:54:42.052Z,1000.36
2018-12-21T04:55:08.154Z,1000.26
2018-12-21T04:55:34.264Z,1000.25
2018-12-21T04:56:00.369Z,1000.21
2018-12-21T04:56:26.475Z,1000.26
2018-12-21T04:56:52.643Z,1000.22
2018-12-21T04:57:18.796Z,1000.25
2018-12-21T04:57:44.935Z,1000.24
2018-12-21T04:58:11.063Z,1000.21
2018-12-21T04:58:37.189Z,1000.25
2018-12-21T04:59:03.303Z,1000.29
2018-12-21T04:59:30.431Z,1000.23
2018-12-21T04:59:56.558Z,1000.26
2018-12-21T05:00:22.702Z,1000.18
2018-12-21T05:00:48.813Z,1000.16
2018-12-21T05:01:14.945Z,1000.24
2018-12-21T05:01:41.054Z,1000.21
2018-12-21T05:02:07.160Z,1000.2
2018-12-21T05:02:33.268Z,1000.16
2018-12-21T05:02:59.374Z,1000.21
2018-12-21T05:03:25.540Z,1000.17
2018-12-21T05:03:51.674Z,1000.14
2018-12-21T05:04:19.918Z,1000.19
2018-12-21T05:04:45.870Z,1000.08
2018-12-21T05:05:11.994Z,1000.16
2018-12-21T05:05:39.459Z,1000.13
2018-12-21T05:06:05.197Z,1000.06
2018-12-21T05:06:31.302Z,1000.11
2018-12-21T05:06:57.408Z,1000.07
2018-12-21T05:07:23.540Z,1000.06
2018-12-21T05:07:49.668Z,1000
2018-12-21T05:08:15.780Z,1000.03
2018-12-21T05:08:41.881Z,999.97
2018-12-21T05:09:08.012Z,1000
2018-12-21T05:09:34.143Z,999.96
2018-12-21T05:10:00.248Z,999.99
2018-12-21T05:10:26.348Z,1000.02
2018-12-21T05:10:52.465Z,999.95
2018-12-21T05:11:18.624Z,999.91
2018-12-21T05:11:44.761Z,999.91
2018-12-21T05:12:10.895Z,999.93
2018-12-21T05:12:37.026Z,999.89
2018-12-21T05:13:03.162Z,999.9
2018-12-21T05:13:29.258Z,999.88
2018-12-21T05:13:55.362Z,999.89
2018-12-21T05:14:22.469Z,999.94
2018-12-21T05:14:48.575Z,999.91
2018-12-21T05:15:14.681Z,999.89
2018-12-21T05:15:40.793Z,999.89
2018-12-21T05:16:06.920Z,999.9
2018-12-21T05:16:33.062Z,999.89
2018-12-21T05:16:59.170Z,999.84
2018-12-21T05:17:25.305Z,999.85
2018-12-21T05:17:51.411Z,999.89